• Join FlightAware (Why Join?)
  • Login
  • US Flag 
10:03PM EDT


 

Airport Tracker/Info


-or-


 

Live Flight TrackerFlight Track Log ✈ SWA1250 ✈ 25-Apr-2013 ✈ KFNT - KMCO

Flight Track Log - Related Links

Times and Time Zones

All times are in EDT time to prevent confusion due to time zone crossing. See the SWA1250 flight status page for this flight to view local times or setup timezone preferences in your user account.

Time Position Orientation Groundspeed Altitude Reporting Facility
EDT Latitude Longitude Course Direction KTS MPH feet Rate Location/Type
11:40AM 43.0094 -83.7917 321° Northwest 162 186 4,800  Level Cleveland Center
11:41AM 43.0611 -83.7347 39° Northeast 168 193 7,300 2,700 Climbing Cleveland Center
11:42AM 43.0992 -83.6342 63° Northeast 255 293 10,300 2,760 Climbing Cleveland Center
11:43AM 43.0964 -83.5061 92° East 288 331 12,900 2,940 Climbing Cleveland Center
11:44AM 43.0211 -83.4344 145° Southeast 279 321 16,200 2,520 Climbing Cleveland Center
11:45AM 42.9308 -83.4558 190° South 245 282 18,000 900 Climbing Cleveland Center
11:46AM 42.8386 -83.4769 190° South 291 335 18,000 540 Level Cleveland Center
11:47AM 42.7464 -83.4981 190° South 326 375 19,100 960 Climbing Cleveland Center
11:48AM 42.6458 -83.5189 189° South 353 406 20,000 600 Climbing Cleveland Center
11:49AM 42.5453 -83.5397 189° South 365 420 20,400 1,500 Climbing Cleveland Center
11:50AM 42.4300 -83.5622 188° South 377 434 23,000 2,400 Climbing Cleveland Center
11:51AM 42.3231 -83.5853 189° South 382 440 25,200 2,160 Climbing Cleveland Center
11:52AM 42.2119 -83.6108 190° South 393 452 27,400 2,040 Climbing Cleveland Center
11:53AM 42.0944 -83.6361 189° South 413 475 29,300 1,800 Climbing Cleveland Center
11:54AM 41.9769 -83.6586 188° South 423 487 31,000 900 Climbing Cleveland Center
11:55AM 41.8575 -83.6833 189° South 431 496 31,200 1,140 Climbing Cleveland Center
11:56AM 41.7358 -83.7081 189° South 431 496 33,300 1,860 Climbing Cleveland Center
11:57AM 41.6186 -83.7331 189° South 431 496 35,000 840 Climbing Cleveland Center
11:58AM 41.4992 -83.7550 188° South 431 496 35,000 480 Level Cleveland Center
11:59AM 41.3794 -83.7822 190° South 431 496 36,000 840 Climbing Cleveland Center
12:02PM 41.0814 -83.8381 188° South 439 505 38,000 540 Climbing Indianapolis Center
12:03PM 40.9733 -83.8597 189° South 442 509 38,000  Level Indianapolis Center
12:04PM 40.8314 -83.8897 189° South 438 504 38,000  Level Indianapolis Center
12:05PM 40.7094 -83.9128 188° South 438 504 38,000  Level Indianapolis Center
12:06PM 40.5875 -83.9381 189° South 439 505 38,000  Level Indianapolis Center
12:07PM 40.4631 -83.9486 184° South 446 513 38,000  Level Indianapolis Center
12:08PM 40.3378 -83.9458 179° South 448 516 38,000  Level Indianapolis Center
12:09PM 40.2142 -83.9450 180° South 442 509 38,000  Level Indianapolis Center
12:10PM 40.0903 -83.9431 179° South 444 511 38,000  Level Indianapolis Center
12:11PM 39.9481 -83.9425 180° South 438 504 38,000  Level Indianapolis Center
12:12PM 39.8258 -83.9408 179° South 438 504 38,000  Level Indianapolis Center
12:13PM 39.7044 -83.9392 179° South 437 503 38,000  Level Indianapolis Center
12:14PM 39.5833 -83.9367 179° South 436 502 38,000  Level Indianapolis Center
12:15PM 39.4608 -83.9367 180° South 438 504 38,000  Level Indianapolis Center
12:16PM 39.3394 -83.9350 179° South 435 501 38,000  Level Indianapolis Center
12:17PM 39.2158 -83.9353 180° South 439 505 38,000  Level Indianapolis Center
12:18PM 39.0733 -83.9325 179° South 437 503 38,000  Level Indianapolis Center
12:19PM 38.9500 -83.9306 179° South 440 506 38,000  Level Indianapolis Center
12:20PM 38.8272 -83.9278 179° South 439 505 38,000  Level Indianapolis Center
12:21PM 38.7028 -83.9272 180° South 441 507 38,000  Level Indianapolis Center
12:22PM 38.5844 -83.9258 179° South 446 513 38,000  Level Indianapolis Center
12:23PM 38.4392 -83.9250 180° South 445 512 38,000  Level Indianapolis Center
12:25PM 38.3156 -83.9219 179° South 444 511 38,000  Level Indianapolis Center
12:26PM 38.1947 -83.9217 180° South 436 502 38,000  Level Indianapolis Center
12:27PM 38.0736 -83.9192 179° South 434 499 38,000  Level Indianapolis Center
12:28PM 37.9517 -83.9200 180° South 437 503 38,000  Level Indianapolis Center
12:29PM 37.8306 -83.9169 179° South 435 501 38,000  Level Indianapolis Center
12:30PM 37.6922 -83.9150 179° South 427 491 38,000  Level Indianapolis Center
12:31PM 37.5736 -83.9150 180° South 426 490 38,000  Level Indianapolis Center
12:32PM 37.4539 -83.9131 179° South 428 493 38,000  Level Indianapolis Center
12:33PM 37.3347 -83.9111 179° South 429 494 38,000  Level Indianapolis Center
12:34PM 37.2150 -83.9103 180° South 431 496 38,000  Level Indianapolis Center
12:35PM 37.0761 -83.9092 180° South 427 491 38,000  Level Indianapolis Center
12:36PM 36.9569 -83.9075 179° South 428 493 38,000  Level Indianapolis Center
12:37PM 36.8408 -83.9047 179° South 421 484 38,000  Level Indianapolis Center
12:38PM 36.7233 -83.9039 180° South 421 484 38,000  Level Indianapolis Center
12:39PM 36.6056 -83.9028 180° South 422 486 38,000  Level Indianapolis Center
12:40PM 36.5378 -83.9044 181° South 421 484 38,000  Level Atlanta Center
12:41PM 36.4128 -83.9019 179° South 421 484 38,000  Level Atlanta Center
12:42PM 36.2961 -83.8997 179° South 421 484 38,000  Level Atlanta Center
12:43PM 36.1772 -83.8997 180° South 421 484 38,000  Level Atlanta Center
12:44PM 36.0561 -83.9000 180° South 421 484 38,000  Level Atlanta Center
12:45PM 35.9372 -83.8978 179° South 421 484 38,000  Level Atlanta Center
12:46PM 35.8161 -83.8697 169° South 431 496 38,000  Level Atlanta Center
12:47PM 35.6931 -83.8317 166° South 444 511 38,000  Level Atlanta Center
12:48PM 35.5658 -83.7961 167° South 462 532 38,000  Level Atlanta Center
12:49PM 35.4406 -83.7608 167° South 462 532 38,000  Level Atlanta Center
12:50PM 35.3131 -83.7231 166° South 468 539 38,000  Level Atlanta Center
12:51PM 35.1878 -83.6856 166° South 468 539 38,000  Level Atlanta Center
12:52PM 35.0606 -83.6481 166° South 468 539 38,000  Level Atlanta Center
12:53PM 34.9225 -83.6056 166° South 468 539 38,000  Level Atlanta Center
12:54PM 34.7908 -83.5658 166° South 473 544 38,000  Level Atlanta Center
12:55PM 34.6781 -83.5361 168° South 473 544 38,000  Level Atlanta Center
12:56PM 34.5339 -83.4917 166° South 468 539 38,000  Level Atlanta Center
12:57PM 34.4086 -83.4572 167° South 468 539 38,000  Level Atlanta Center
12:58PM 34.2958 -83.4253 167° South 468 539 38,000  Level Atlanta Center
12:59PM 34.1725 -83.3886 166° South 458 527 38,000  Level Atlanta Center
01:00PM 34.0492 -83.3519 166° South 458 527 38,000  Level Atlanta Center
01:01PM 33.9258 -83.3153 166° South 458 527 38,000  Level Atlanta Center
01:02PM 33.8022 -83.2739 164° South 458 527 38,000  Level Atlanta Center
01:03PM 33.6664 -83.2275 164° South 458 527 38,000  Level Atlanta Center
01:04PM 33.5450 -83.1864 164° South 458 527 38,000  Level Atlanta Center
01:05PM 33.4194 -83.1453 165° South 463 533 38,000  Level Atlanta Center
01:06PM 33.2958 -83.1019 164° South 457 526 38,000  Level Atlanta Center
01:07PM 33.1725 -83.0586 164° South 457 526 38,000  Level Atlanta Center
01:09PM 32.8700 -82.9594 165° South 462 532 38,000  Level Jacksonville Center
01:11PM 32.6175 -82.8703 163° South 467 537 38,000  Level Jacksonville Center
01:12PM 32.4922 -82.8286 164° South 472 543 38,000  Level Jacksonville Center
01:13PM 32.3731 -82.7869 164° South 467 537 38,000  Level Jacksonville Center
01:14PM 32.2458 -82.7453 165° South 467 537 38,000  Level Jacksonville Center
01:15PM 32.1225 -82.7011 163° South 462 532 38,000  Level Jacksonville Center
01:16PM 31.9972 -82.6597 164° South 462 532 38,000  Level Jacksonville Center
01:17PM 31.8678 -82.6258 167° South 469 540 38,000 -540 Level Jacksonville Center
01:18PM 31.7422 -82.5969 169° South 469 540 37,000 -1,020 Descending Jacksonville Center
01:19PM 31.6128 -82.5681 169° South 469 540 36,000 -960 Descending Jacksonville Center
01:20PM 31.4811 -82.5369 169° South 469 540 35,100 -900 Descending Jacksonville Center
01:21PM 31.3808 -82.5131 169° South 469 540 34,300 -600 Descending Jacksonville Center
01:22PM 31.2264 -82.4794 169° South 475 547 34,000 -180 Descending Jacksonville Center
01:23PM 31.0967 -82.4461 168° South 475 547 34,000  Level Jacksonville Center
01:24PM 30.9692 -82.4178 169° South 475 547 34,000  Level Jacksonville Center
01:25PM 30.8417 -82.3892 169° South 470 541 34,000  Level Jacksonville Center
01:26PM 30.7122 -82.3586 169° South 470 541 34,000  Level Jacksonville Center
01:27PM 30.5847 -82.3281 168° South 470 541 34,000  Level Jacksonville Center
01:28PM 30.4550 -82.2950 168° South 470 541 34,000 -300 Level Jacksonville Center
01:29PM 30.3256 -82.2644 168° South 470 541 33,400 -660 Descending Jacksonville Center
01:30PM 30.2128 -82.2389 169° South 470 541 32,700 -900 Descending Jacksonville Center
01:31PM 30.0808 -82.2108 170° South 470 541 31,700 -1,200 Descending Jacksonville Center
01:32PM 29.9408 -82.1733 167° South 470 541 30,400 -1,920 Descending Jacksonville Center
01:33PM 29.8194 -82.1264 161° South 465 535 28,000 -2,220 Descending Jacksonville Center
01:34PM 29.7128 -82.0842 161° South 459 528 26,000 -2,160 Descending Jacksonville Center
01:35PM 29.5978 -82.0400 162° South 447 514 23,700 -2,400 Descending Jacksonville Center
01:36PM 29.4783 -82.0003 164° South 424 488 21,300 -2,280 Descending Jacksonville Center
01:37PM 29.3758 -81.9631 162° South 412 474 19,200 -2,040 Descending Jacksonville Center
01:38PM 29.2733 -81.9283 164° South 400 460 17,300 -2,040 Descending Jacksonville Center
01:39PM 29.1811 -81.8914 161° South 390 449 15,200 -2,100 Descending Jacksonville Center
01:40PM 29.0869 -81.8567 162° South 377 434 13,100 -1,680 Descending Jacksonville Center
01:41PM 28.9947 -81.8219 162° South 369 425 11,900 -600 Descending Jacksonville Center
01:42PM 28.9211 -81.7350 134° Southeast 339 390 11,900 -300 Level Jacksonville Center
01:43PM 28.8703 -81.6572 127° Southeast 333 383 11,400 -780 Descending Jacksonville Center
01:44PM 28.8333 -81.5833 120° Southeast 317 365 10,600 -1,140 Descending Orlando TRACON
01:45PM 28.7667 -81.5167 139° Southeast 301 346 9,500 -1,200 Descending Orlando TRACON
01:46PM 28.7167 -81.4333 124° Southeast 294 338 8,200 -1,500 Descending Orlando TRACON
01:47PM 28.6500 -81.3667 139° Southeast 289 333 6,200 -1,800 Descending Orlando TRACON
01:48PM 28.6167 -81.3000 120° Southeast 284 327 4,800 -1,800 Descending Orlando TRACON
01:49PM 28.5500 -81.2833 168° South 227 261 3,000 -1,560 Descending Orlando TRACON
01:50PM 28.5000 -81.2833 180° South 179 206 1,700 -1,200 Descending Orlando TRACON
01:51PM 28.4500 -81.3000 196° South 150 173 600 -1,020 Descending Orlando TRACON
01:53PM 28.4294 -81.3090 19° North  Level Estimated
02:00PM 28.4294 -81.3090 24° Northeast  Level Estimated
02:01PM 28.4294 -81.3090 24° Northeast  Level Estimated
02:02PM 28.4294 -81.3090 24° Northeast  Level Estimated